sensor_id;sensor_type;location;lat;lon;timestamp;P1;durP1;ratioP1;P2;durP2;ratioP2
15500;SDS011;7852;52.228;5.990;2022-09-03T00:02:35;3.7;;;3.1;;
15500;SDS011;7852;52.228;5.990;2022-09-03T00:02:35;4.8;;;3;;
15500;SDS011;7852;52.228;5.990;2022-09-03T00:02:35;4.4;;;2.9;;
15500;SDS011;7852;52.228;5.990;2022-09-03T00:03:16;4.8;;;3;;
15500;SDS011;7852;52.228;5.990;2022-09-03T00:04:18;3.5;;;3;;
15500;SDS011;7852;52.228;5.990;2022-09-03T00:05:18;5.2;;;2.9;;
15500;SDS011;7852;52.228;5.990;2022-09-03T00:06:17;4.2;;;2.9;;
15500;SDS011;7852;52.228;5.990;2022-09-03T00:07:16;3;;;2.7;;
15500;SDS011;7852;52.228;5.990;2022-09-03T00:08:18;3.8;;;3.4;;
15500;SDS011;7852;52.228;5.990;2022-09-03T00:09:17;5.2;;;3.1;;
15500;SDS011;7852;52.228;5.990;2022-09-03T00:10:18;3.1;;;2.8;;
15500;SDS011;7852;52.228;5.990;2022-09-03T00:11:17;3.8;;;2.9;;
15500;SDS011;7852;52.228;5.990;2022-09-03T00:12:16;5.1;;;3.2;;
15500;SDS011;7852;52.228;5.990;2022-09-03T00:13:16;4;;;3.1;;
15500;SDS011;7852;52.228;5.990;2022-09-03T00:14:17;3.8;;;2.8;;
15500;SDS011;7852;52.228;5.990;2022-09-03T00:15:17;3.9;;;3.1;;
15500;SDS011;7852;52.228;5.990;2022-09-03T00:16:16;3.2;;;2.9;;
15500;SDS011;7852;52.228;5.990;2022-09-03T00:17:16;4.2;;;2.9;;
15500;SDS011;7852;52.228;5.990;2022-09-03T00:18:18;4.7;;;3.1;;
15500;SDS011;7852;52.228;5.990;2022-09-03T00:19:16;3;;;2.7;;
15500;SDS011;7852;52.228;5.990;2022-09-03T00:20:16;3.4;;;2.9;;
15500;SDS011;7852;52.228;5.990;2022-09-03T00:21:16;4.6;;;3.2;;
15500;SDS011;7852;52.228;5.990;2022-09-03T00:22:16;3.5;;;3.2;;
15500;SDS011;7852;52.228;5.990;2022-09-03T00:23:17;4.1;;;3.3;;
15500;SDS011;7852;52.228;5.990;2022-09-03T00:24:16;3.4;;;3.1;;
15500;SDS011;7852;52.228;5.990;2022-09-03T00:25:17;4.2;;;3.8;;
15500;SDS011;7852;52.228;5.990;2022-09-03T00:26:17;3.6;;;3.3;;
15500;SDS011;7852;52.228;5.990;2022-09-03T00:27:16;3.2;;;3;;
15500;SDS011;7852;52.228;5.990;2022-09-03T00:28:16;3.7;;;3.3;;
15500;SDS011;7852;52.228;5.990;2022-09-03T00:29:16;3.2;;;2.7;;
15500;SDS011;7852;52.228;5.990;2022-09-03T00:30:15;4.1;;;3.1;;
15500;SDS011;7852;52.228;5.990;2022-09-03T00:31:17;3.6;;;3.3;;
15500;SDS011;7852;52.228;5.990;2022-09-03T00:32:16;5.3;;;3.2;;
15500;SDS011;7852;52.228;5.990;2022-09-03T00:33:17;4.4;;;3.3;;
15500;SDS011;7852;52.228;5.990;2022-09-03T00:34:18;4.1;;;3.3;;
15500;SDS011;7852;52.228;5.990;2022-09-03T00:35:18;3.4;;;3.1;;
15500;SDS011;7852;52.228;5.990;2022-09-03T00:36:17;4.2;;;3.6;;
15500;SDS011;7852;52.228;5.990;2022-09-03T00:37:17;4.5;;;3.3;;
15500;SDS011;7852;52.228;5.990;2022-09-03T00:38:17;4.1;;;3.6;;
15500;SDS011;7852;52.228;5.990;2022-09-03T00:39:18;3.6;;;3.3;;
15500;SDS011;7852;52.228;5.990;2022-09-03T00:40:21;3.9;;;3.3;;
15500;SDS011;7852;52.228;5.990;2022-09-03T00:41:20;3.7;;;3.3;;
15500;SDS011;7852;52.228;5.990;2022-09-03T00:42:22;4.2;;;3.5;;
15500;SDS011;7852;52.228;5.990;2022-09-03T00:43:20;3.7;;;3.4;;
15500;SDS011;7852;52.228;5.990;2022-09-03T00:44:23;3.7;;;3.4;;
15500;SDS011;7852;52.228;5.990;2022-09-03T00:45:21;3.8;;;3.3;;
15500;SDS011;7852;52.228;5.990;2022-09-03T00:46:18;6.9;;;3.4;;
15500;SDS011;7852;52.228;5.990;2022-09-03T00:47:18;4.1;;;3.4;;
15500;SDS011;7852;52.228;5.990;2022-09-03T00:48:19;4;;;3.2;;
15500;SDS011;7852;52.228;5.990;2022-09-03T00:49:22;3.9;;;3.5;;
15500;SDS011;7852;52.228;5.990;2022-09-03T00:50:19;3.7;;;3.4;;
15500;SDS011;7852;52.228;5.990;2022-09-03T00:51:20;4.4;;;3.4;;
15500;SDS011;7852;52.228;5.990;2022-09-03T00:52:20;4.2;;;3.4;;
15500;SDS011;7852;52.228;5.990;2022-09-03T00:53:19;4.4;;;3.3;;
15500;SDS011;7852;52.228;5.990;2022-09-03T00:54:19;3.6;;;3.3;;
15500;SDS011;7852;52.228;5.990;2022-09-03T00:55:22;4.2;;;3.8;;
15500;SDS011;7852;52.228;5.990;2022-09-03T00:56:20;4.2;;;3.5;;
15500;SDS011;7852;52.228;5.990;2022-09-03T00:57:21;5.4;;;3.7;;
15500;SDS011;7852;52.228;5.990;2022-09-03T00:58:25;4.9;;;3.6;;
15500;SDS011;7852;52.228;5.990;2022-09-03T00:59:21;4.9;;;3.4;;
15500;SDS011;7852;52.228;5.990;2022-09-03T01:00:18;4.3;;;3.9;;
15500;SDS011;7852;52.228;5.990;2022-09-03T01:01:19;5;;;3.8;;
15500;SDS011;7852;52.228;5.990;2022-09-03T01:02:18;5.7;;;3.7;;
15500;SDS011;7852;52.228;5.990;2022-09-03T01:03:18;4;;;3.5;;
15500;SDS011;7852;52.228;5.990;2022-09-03T01:04:24;4.2;;;3.8;;
15500;SDS011;7852;52.228;5.990;2022-09-03T01:05:20;4.4;;;3.8;;
15500;SDS011;7852;52.228;5.990;2022-09-03T01:06:21;3.9;;;3.6;;
15500;SDS011;7852;52.228;5.990;2022-09-03T01:07:19;4.1;;;3.8;;
15500;SDS011;7852;52.228;5.990;2022-09-03T01:08:24;4.1;;;3.8;;
15500;SDS011;7852;52.228;5.990;2022-09-03T01:09:21;5.2;;;4.1;;
15500;SDS011;7852;52.228;5.990;2022-09-03T01:10:22;5;;;4;;
15500;SDS011;7852;52.228;5.990;2022-09-03T01:11:22;5.6;;;3.9;;
15500;SDS011;7852;52.228;5.990;2022-09-03T01:12:23;4.4;;;4;;
15500;SDS011;7852;52.228;5.990;2022-09-03T01:13:20;4.2;;;3.8;;
15500;SDS011;7852;52.228;5.990;2022-09-03T01:14:22;4.8;;;3.9;;
15500;SDS011;7852;52.228;5.990;2022-09-03T01:15:21;5.2;;;3.6;;
15500;SDS011;7852;52.228;5.990;2022-09-03T01:16:21;3.9;;;3.6;;
15500;SDS011;7852;52.228;5.990;2022-09-03T01:17:22;4;;;3.7;;
15500;SDS011;7852;52.228;5.990;2022-09-03T01:18:21;4.2;;;3.8;;
15500;SDS011;7852;52.228;5.990;2022-09-03T01:19:26;4.9;;;3.8;;
15500;SDS011;7852;52.228;5.990;2022-09-03T01:20:22;4.3;;;3.6;;
15500;SDS011;7852;52.228;5.990;2022-09-03T01:21:24;5.2;;;4;;
15500;SDS011;7852;52.228;5.990;2022-09-03T01:22:24;4.5;;;4.1;;
15500;SDS011;7852;52.228;5.990;2022-09-03T01:23:25;4.4;;;4;;
15500;SDS011;7852;52.228;5.990;2022-09-03T01:24:24;4.3;;;3.9;;
15500;SDS011;7852;52.228;5.990;2022-09-03T01:25:22;5;;;4.5;;
15500;SDS011;7852;52.228;5.990;2022-09-03T01:26:23;4.4;;;4;;
15500;SDS011;7852;52.228;5.990;2022-09-03T01:27:23;4.4;;;4;;
15500;SDS011;7852;52.228;5.990;2022-09-03T01:28:22;4.8;;;3.8;;
15500;SDS011;7852;52.228;5.990;2022-09-03T01:29:20;4.8;;;4.2;;
15500;SDS011;7852;52.228;5.990;2022-09-03T01:30:19;6.1;;;3.9;;
15500;SDS011;7852;52.228;5.990;2022-09-03T01:31:22;5.2;;;4.1;;
15500;SDS011;7852;52.228;5.990;2022-09-03T01:32:21;5.4;;;4;;
15500;SDS011;7852;52.228;5.990;2022-09-03T01:33:22;4.9;;;4.1;;
15500;SDS011;7852;52.228;5.990;2022-09-03T01:34:23;4.4;;;4.1;;
15500;SDS011;7852;52.228;5.990;2022-09-03T01:35:22;4.7;;;4.2;;
15500;SDS011;7852;52.228;5.990;2022-09-03T01:36:22;5.3;;;4.7;;
15500;SDS011;7852;52.228;5.990;2022-09-03T01:37:23;6.5;;;4.7;;
15500;SDS011;7852;52.228;5.990;2022-09-03T01:38:28;5.1;;;4.6;;
15500;SDS011;7852;52.228;5.990;2022-09-03T01:39:22;7.9;;;5.1;;
15500;SDS011;7852;52.228;5.990;2022-09-03T01:40:21;4.8;;;4.3;;
15500;SDS011;7852;52.228;5.990;2022-09-03T01:41:24;4.6;;;4.2;;
15500;SDS011;7852;52.228;5.990;2022-09-03T01:42:22;7;;;4.8;;
15500;SDS011;7852;52.228;5.990;2022-09-03T01:43:25;5.9;;;5.2;;
15500;SDS011;7852;52.228;5.990;2022-09-03T01:44:22;6.3;;;4.7;;
15500;SDS011;7852;52.228;5.990;2022-09-03T01:45:25;5.5;;;4.8;;
15500;SDS011;7852;52.228;5.990;2022-09-03T01:46:22;5.4;;;4.9;;
15500;SDS011;7852;52.228;5.990;2022-09-03T01:47:21;5.5;;;4.9;;
15500;SDS011;7852;52.228;5.990;2022-09-03T01:48:25;6;;;4.9;;
15500;SDS011;7852;52.228;5.990;2022-09-03T01:49:22;6.7;;;4.7;;
15500;SDS011;7852;52.228;5.990;2022-09-03T01:50:25;9.8;;;4.8;;
15500;SDS011;7852;52.228;5.990;2022-09-03T01:51:22;7.8;;;5.1;;
15500;SDS011;7852;52.228;5.990;2022-09-03T01:52:24;5.5;;;4.9;;
15500;SDS011;7852;52.228;5.990;2022-09-03T01:53:26;6.2;;;5.3;;
15500;SDS011;7852;52.228;5.990;2022-09-03T01:54:28;5.9;;;5.1;;
15500;SDS011;7852;52.228;5.990;2022-09-03T01:55:25;7.8;;;5.9;;
15500;SDS011;7852;52.228;5.990;2022-09-03T01:56:26;9.3;;;5.3;;
15500;SDS011;7852;52.228;5.990;2022-09-03T01:57:23;6.4;;;5.2;;
15500;SDS011;7852;52.228;5.990;2022-09-03T01:58:23;6.7;;;5.5;;
15500;SDS011;7852;52.228;5.990;2022-09-03T01:59:22;7.6;;;5.5;;
15500;SDS011;7852;52.228;5.990;2022-09-03T02:00:22;7.5;;;5.7;;
15500;SDS011;7852;52.228;5.990;2022-09-03T02:01:23;8.4;;;5.4;;
15500;SDS011;7852;52.228;5.990;2022-09-03T02:02:22;6.8;;;5.7;;
15500;SDS011;7852;52.228;5.990;2022-09-03T02:03:21;7.1;;;5.6;;
15500;SDS011;7852;52.228;5.990;2022-09-03T02:04:24;8.3;;;5.6;;
15500;SDS011;7852;52.228;5.990;2022-09-03T02:05:22;6.3;;;5.3;;
15500;SDS011;7852;52.228;5.990;2022-09-03T02:06:21;14.3;;;6.3;;
15500;SDS011;7852;52.228;5.990;2022-09-03T02:07:21;5.2;;;4.8;;
15500;SDS011;7852;52.228;5.990;2022-09-03T02:08:21;8.6;;;5;;
15500;SDS011;7852;52.228;5.990;2022-09-03T02:09:22;5.4;;;4.9;;
15500;SDS011;7852;52.228;5.990;2022-09-03T02:10:23;5.5;;;5;;
15500;SDS011;7852;52.228;5.990;2022-09-03T02:11:22;7.4;;;5;;
15500;SDS011;7852;52.228;5.990;2022-09-03T02:12:22;6.3;;;4.9;;
15500;SDS011;7852;52.228;5.990;2022-09-03T02:13:23;5.3;;;4.8;;
15500;SDS011;7852;52.228;5.990;2022-09-03T02:14:23;6.2;;;4.7;;
15500;SDS011;7852;52.228;5.990;2022-09-03T02:15:22;5.5;;;4.9;;
15500;SDS011;7852;52.228;5.990;2022-09-03T02:16:24;6;;;4.6;;
15500;SDS011;7852;52.228;5.990;2022-09-03T02:17:22;5.6;;;5;;
15500;SDS011;7852;52.228;5.990;2022-09-03T02:18:23;5.4;;;4.9;;
15500;SDS011;7852;52.228;5.990;2022-09-03T02:19:22;5.4;;;4.9;;
15500;SDS011;7852;52.228;5.990;2022-09-03T02:20:23;5.8;;;4.9;;
15500;SDS011;7852;52.228;5.990;2022-09-03T02:21:23;6.6;;;5.4;;
15500;SDS011;7852;52.228;5.990;2022-09-03T02:22:22;7.6;;;5.9;;
15500;SDS011;7852;52.228;5.990;2022-09-03T02:23:23;7;;;6.3;;
15500;SDS011;7852;52.228;5.990;2022-09-03T02:24:22;6.7;;;6;;
15500;SDS011;7852;52.228;5.990;2022-09-03T02:25:23;7.3;;;6.6;;
15500;SDS011;7852;52.228;5.990;2022-09-03T02:26:23;6.5;;;5.9;;
15500;SDS011;7852;52.228;5.990;2022-09-03T02:27:22;11.2;;;6.2;;
15500;SDS011;7852;52.228;5.990;2022-09-03T02:28:22;7.3;;;6.2;;
15500;SDS011;7852;52.228;5.990;2022-09-03T02:29:22;7;;;6.3;;
15500;SDS011;7852;52.228;5.990;2022-09-03T02:30:22;8.5;;;6.5;;
15500;SDS011;7852;52.228;5.990;2022-09-03T02:31:23;7.2;;;6.5;;
15500;SDS011;7852;52.228;5.990;2022-09-03T02:32:22;8;;;6.3;;
15500;SDS011;7852;52.228;5.990;2022-09-03T02:33:22;7.6;;;6.8;;
15500;SDS011;7852;52.228;5.990;2022-09-03T02:34:22;7.9;;;6.9;;
15500;SDS011;7852;52.228;5.990;2022-09-03T02:35:22;9.4;;;6.8;;
15500;SDS011;7852;52.228;5.990;2022-09-03T02:36:23;9.6;;;6.9;;
15500;SDS011;7852;52.228;5.990;2022-09-03T02:37:22;7.2;;;6.4;;
15500;SDS011;7852;52.228;5.990;2022-09-03T02:38:24;8.5;;;7.1;;
15500;SDS011;7852;52.228;5.990;2022-09-03T02:39:22;8.6;;;7;;
15500;SDS011;7852;52.228;5.990;2022-09-03T02:40:22;7.4;;;6.7;;
15500;SDS011;7852;52.228;5.990;2022-09-03T02:41:22;9.5;;;7.2;;
15500;SDS011;7852;52.228;5.990;2022-09-03T02:42:22;8.1;;;6.9;;
15500;SDS011;7852;52.228;5.990;2022-09-03T02:43:25;8.5;;;7;;
15500;SDS011;7852;52.228;5.990;2022-09-03T02:44:23;7.4;;;6.7;;
15500;SDS011;7852;52.228;5.990;2022-09-03T02:45:23;7.4;;;6.7;;
15500;SDS011;7852;52.228;5.990;2022-09-03T02:46:23;8.8;;;7;;
15500;SDS011;7852;52.228;5.990;2022-09-03T02:47:22;8.2;;;7.2;;
15500;SDS011;7852;52.228;5.990;2022-09-03T02:48:23;7.2;;;6.5;;
15500;SDS011;7852;52.228;5.990;2022-09-03T02:49:22;8.9;;;7.1;;
15500;SDS011;7852;52.228;5.990;2022-09-03T02:50:22;8.3;;;6.9;;
15500;SDS011;7852;52.228;5.990;2022-09-03T02:51:22;8.8;;;7.9;;
15500;SDS011;7852;52.228;5.990;2022-09-03T02:52:22;6.9;;;6.2;;
15500;SDS011;7852;52.228;5.990;2022-09-03T02:53:22;8;;;6.9;;
15500;SDS011;7852;52.228;5.990;2022-09-03T02:54:22;8.9;;;6.8;;
15500;SDS011;7852;52.228;5.990;2022-09-03T02:55:22;7.8;;;7;;
15500;SDS011;7852;52.228;5.990;2022-09-03T02:56:22;7.8;;;7;;
15500;SDS011;7852;52.228;5.990;2022-09-03T02:57:22;8;;;7;;
15500;SDS011;7852;52.228;5.990;2022-09-03T02:58:22;7.9;;;6.6;;
15500;SDS011;7852;52.228;5.990;2022-09-03T02:59:22;7.8;;;7;;
15500;SDS011;7852;52.228;5.990;2022-09-03T03:00:22;7.7;;;6.7;;
15500;SDS011;7852;52.228;5.990;2022-09-03T03:01:23;7.5;;;6.7;;
15500;SDS011;7852;52.228;5.990;2022-09-03T03:02:22;7.7;;;6.6;;
15500;SDS011;7852;52.228;5.990;2022-09-03T03:03:22;8;;;7.2;;
15500;SDS011;7852;52.228;5.990;2022-09-03T03:04:22;8.6;;;7;;
15500;SDS011;7852;52.228;5.990;2022-09-03T03:05:23;7.5;;;6.8;;
15500;SDS011;7852;52.228;5.990;2022-09-03T03:06:22;7.9;;;6.9;;
15500;SDS011;7852;52.228;5.990;2022-09-03T03:07:22;7.9;;;6.5;;
15500;SDS011;7852;52.228;5.990;2022-09-03T03:08:23;7;;;6.4;;
15500;SDS011;7852;52.228;5.990;2022-09-03T03:09:22;8.1;;;7.1;;
15500;SDS011;7852;52.228;5.990;2022-09-03T03:10:22;8.2;;;6.8;;
15500;SDS011;7852;52.228;5.990;2022-09-03T03:11:22;7.2;;;6.5;;
15500;SDS011;7852;52.228;5.990;2022-09-03T03:12:22;7.5;;;6.7;;
15500;SDS011;7852;52.228;5.990;2022-09-03T03:13:22;6.9;;;6.3;;
15500;SDS011;7852;52.228;5.990;2022-09-03T03:14:22;8.2;;;6.6;;
15500;SDS011;7852;52.228;5.990;2022-09-03T03:15:22;7.3;;;6.6;;
15500;SDS011;7852;52.228;5.990;2022-09-03T03:16:22;7.5;;;6.6;;
15500;SDS011;7852;52.228;5.990;2022-09-03T03:17:22;7.4;;;6.5;;
15500;SDS011;7852;52.228;5.990;2022-09-03T03:18:22;7.8;;;6.6;;
15500;SDS011;7852;52.228;5.990;2022-09-03T03:19:22;7;;;6.3;;
15500;SDS011;7852;52.228;5.990;2022-09-03T03:20:23;8.4;;;7.5;;
15500;SDS011;7852;52.228;5.990;2022-09-03T03:21:23;9;;;7.3;;
15500;SDS011;7852;52.228;5.990;2022-09-03T03:22:22;7.7;;;7;;
15500;SDS011;7852;52.228;5.990;2022-09-03T03:23:22;7.2;;;6.3;;
15500;SDS011;7852;52.228;5.990;2022-09-03T03:24:22;7.2;;;6.5;;
15500;SDS011;7852;52.228;5.990;2022-09-03T03:25:22;7.1;;;6.4;;
15500;SDS011;7852;52.228;5.990;2022-09-03T03:26:23;7.1;;;6.4;;
15500;SDS011;7852;52.228;5.990;2022-09-03T03:27:23;7.3;;;6.6;;
15500;SDS011;7852;52.228;5.990;2022-09-03T03:28:23;6.6;;;6;;
15500;SDS011;7852;52.228;5.990;2022-09-03T03:29:24;7.1;;;6.4;;
15500;SDS011;7852;52.228;5.990;2022-09-03T03:30:23;7;;;6.2;;
15500;SDS011;7852;52.228;5.990;2022-09-03T03:31:24;7.5;;;6.5;;
15500;SDS011;7852;52.228;5.990;2022-09-03T03:32:23;7.4;;;6.6;;
15500;SDS011;7852;52.228;5.990;2022-09-03T03:33:23;7.1;;;6.4;;
15500;SDS011;7852;52.228;5.990;2022-09-03T03:34:23;7.3;;;6.5;;
15500;SDS011;7852;52.228;5.990;2022-09-03T03:35:23;6.5;;;5.9;;
15500;SDS011;7852;52.228;5.990;2022-09-03T03:36:24;6.8;;;6.1;;
15500;SDS011;7852;52.228;5.990;2022-09-03T03:37:23;7.6;;;6.8;;
15500;SDS011;7852;52.228;5.990;2022-09-03T03:38:23;7.2;;;6.5;;
15500;SDS011;7852;52.228;5.990;2022-09-03T03:39:23;7.1;;;6.5;;
15500;SDS011;7852;52.228;5.990;2022-09-03T03:40:24;7.1;;;6.4;;
15500;SDS011;7852;52.228;5.990;2022-09-03T03:41:25;7.3;;;6;;
15500;SDS011;7852;52.228;5.990;2022-09-03T03:42:23;6.4;;;5.8;;
15500;SDS011;7852;52.228;5.990;2022-09-03T03:43:23;6.6;;;6;;
15500;SDS011;7852;52.228;5.990;2022-09-03T03:44:23;7.2;;;6.5;;
15500;SDS011;7852;52.228;5.990;2022-09-03T03:45:23;6.8;;;6.2;;
15500;SDS011;7852;52.228;5.990;2022-09-03T03:46:24;6.8;;;6.2;;
15500;SDS011;7852;52.228;5.990;2022-09-03T03:47:23;6.4;;;5.8;;
15500;SDS011;7852;52.228;5.990;2022-09-03T03:48:25;8.1;;;6.4;;
15500;SDS011;7852;52.228;5.990;2022-09-03T03:49:23;7;;;6.4;;
15500;SDS011;7852;52.228;5.990;2022-09-03T03:50:24;6.4;;;5.8;;
15500;SDS011;7852;52.228;5.990;2022-09-03T03:51:24;6.5;;;5.9;;
15500;SDS011;7852;52.228;5.990;2022-09-03T03:52:24;7.2;;;5.7;;
15500;SDS011;7852;52.228;5.990;2022-09-03T03:53:23;7;;;6.4;;
15500;SDS011;7852;52.228;5.990;2022-09-03T03:54:24;9;;;6.3;;
15500;SDS011;7852;52.228;5.990;2022-09-03T03:55:23;6.5;;;5.9;;
15500;SDS011;7852;52.228;5.990;2022-09-03T03:56:24;7;;;6.4;;
15500;SDS011;7852;52.228;5.990;2022-09-03T03:57:23;7.3;;;6.6;;
15500;SDS011;7852;52.228;5.990;2022-09-03T03:58:23;7.2;;;5.5;;
15500;SDS011;7852;52.228;5.990;2022-09-03T03:59:23;6.5;;;5.9;;
15500;SDS011;7852;52.228;5.990;2022-09-03T04:00:23;6.6;;;5.9;;
15500;SDS011;7852;52.228;5.990;2022-09-03T04:01:24;6.7;;;5.9;;
15500;SDS011;7852;52.228;5.990;2022-09-03T04:02:23;7.6;;;5.7;;
15500;SDS011;7852;52.228;5.990;2022-09-03T04:03:25;6.4;;;5.7;;
15500;SDS011;7852;52.228;5.990;2022-09-03T04:04:23;7.1;;;6.1;;
15500;SDS011;7852;52.228;5.990;2022-09-03T04:05:23;6.7;;;6.1;;
15500;SDS011;7852;52.228;5.990;2022-09-03T04:06:23;6.6;;;5.9;;
15500;SDS011;7852;52.228;5.990;2022-09-03T04:07:23;6.6;;;6;;
15500;SDS011;7852;52.228;5.990;2022-09-03T04:08:23;6.4;;;5.8;;
15500;SDS011;7852;52.228;5.990;2022-09-03T04:09:23;7.3;;;6.1;;
15500;SDS011;7852;52.228;5.990;2022-09-03T04:10:23;6.9;;;6.2;;
15500;SDS011;7852;52.228;5.990;2022-09-03T04:11:24;6.4;;;5.8;;
15500;SDS011;7852;52.228;5.990;2022-09-03T04:12:23;6.7;;;5.9;;
15500;SDS011;7852;52.228;5.990;2022-09-03T04:13:23;8.5;;;5.9;;
15500;SDS011;7852;52.228;5.990;2022-09-03T04:14:23;6.5;;;5.8;;
15500;SDS011;7852;52.228;5.990;2022-09-03T04:15:23;6;;;5.5;;
15500;SDS011;7852;52.228;5.990;2022-09-03T04:16:24;6.2;;;5.6;;
15500;SDS011;7852;52.228;5.990;2022-09-03T04:17:23;6.7;;;6.1;;
15500;SDS011;7852;52.228;5.990;2022-09-03T04:18:23;7;;;6.3;;
15500;SDS011;7852;52.228;5.990;2022-09-03T04:19:23;6.3;;;5.7;;
15500;SDS011;7852;52.228;5.990;2022-09-03T04:20:23;6;;;5.5;;
15500;SDS011;7852;52.228;5.990;2022-09-03T04:21:25;6.1;;;5.4;;
15500;SDS011;7852;52.228;5.990;2022-09-03T04:22:23;5.8;;;5.1;;
15500;SDS011;7852;52.228;5.990;2022-09-03T04:23:23;7.1;;;5.6;;
15500;SDS011;7852;52.228;5.990;2022-09-03T04:24:23;5.8;;;5;;
15500;SDS011;7852;52.228;5.990;2022-09-03T04:25:23;5.9;;;5.3;;
15500;SDS011;7852;52.228;5.990;2022-09-03T04:26:24;5.5;;;5;;
15500;SDS011;7852;52.228;5.990;2022-09-03T04:27:23;5.4;;;4.9;;
15500;SDS011;7852;52.228;5.990;2022-09-03T04:28:25;7;;;5.5;;
15500;SDS011;7852;52.228;5.990;2022-09-03T04:29:23;6.4;;;5.8;;
15500;SDS011;7852;52.228;5.990;2022-09-03T04:30:23;6.3;;;5.7;;
15500;SDS011;7852;52.228;5.990;2022-09-03T04:31:23;7.7;;;6;;
15500;SDS011;7852;52.228;5.990;2022-09-03T04:32:23;6.6;;;6;;
15500;SDS011;7852;52.228;5.990;2022-09-03T04:33:23;6.5;;;5.7;;
15500;SDS011;7852;52.228;5.990;2022-09-03T04:34:23;5.8;;;5.3;;
15500;SDS011;7852;52.228;5.990;2022-09-03T04:35:24;5.7;;;5.2;;
15500;SDS011;7852;52.228;5.990;2022-09-03T04:36:24;6.7;;;5.5;;
15500;SDS011;7852;52.228;5.990;2022-09-03T04:37:23;6;;;5.4;;
15500;SDS011;7852;52.228;5.990;2022-09-03T04:38:23;6.1;;;5.1;;
15500;SDS011;7852;52.228;5.990;2022-09-03T04:39:23;6;;;5.5;;
15500;SDS011;7852;52.228;5.990;2022-09-03T04:40:23;6.4;;;5.8;;
15500;SDS011;7852;52.228;5.990;2022-09-03T04:41:24;6;;;5.5;;
15500;SDS011;7852;52.228;5.990;2022-09-03T04:42:23;5.9;;;5.2;;
15500;SDS011;7852;52.228;5.990;2022-09-03T04:43:24;5.8;;;5.3;;
15500;SDS011;7852;52.228;5.990;2022-09-03T04:44:23;5.8;;;5.3;;
15500;SDS011;7852;52.228;5.990;2022-09-03T04:45:23;5.1;;;4.7;;
15500;SDS011;7852;52.228;5.990;2022-09-03T04:46:25;5.7;;;5.2;;
15500;SDS011;7852;52.228;5.990;2022-09-03T04:47:23;6.2;;;5.6;;
15500;SDS011;7852;52.228;5.990;2022-09-03T04:48:23;5.5;;;5;;
15500;SDS011;7852;52.228;5.990;2022-09-03T04:49:23;5.6;;;5.1;;
15500;SDS011;7852;52.228;5.990;2022-09-03T04:50:23;6.5;;;4.9;;
15500;SDS011;7852;52.228;5.990;2022-09-03T04:51:25;5.6;;;4.9;;
15500;SDS011;7852;52.228;5.990;2022-09-03T04:52:23;5.5;;;4.9;;
15500;SDS011;7852;52.228;5.990;2022-09-03T04:53:23;5.5;;;5;;
15500;SDS011;7852;52.228;5.990;2022-09-03T04:54:23;6.8;;;5.5;;
15500;SDS011;7852;52.228;5.990;2022-09-03T04:55:23;5.9;;;5.3;;
15500;SDS011;7852;52.228;5.990;2022-09-03T04:56:24;5.7;;;5;;
15500;SDS011;7852;52.228;5.990;2022-09-03T04:57:23;7.2;;;5.2;;
15500;SDS011;7852;52.228;5.990;2022-09-03T04:58:30;6.2;;;5.6;;
15500;SDS011;7852;52.228;5.990;2022-09-03T04:59:30;6.5;;;5.8;;
15500;SDS011;7852;52.228;5.990;2022-09-03T05:00:31;7;;;6.3;;
15500;SDS011;7852;52.228;5.990;2022-09-03T05:01:31;8.7;;;6.5;;
15500;SDS011;7852;52.228;5.990;2022-09-03T05:02:30;6.9;;;6.2;;
15500;SDS011;7852;52.228;5.990;2022-09-03T05:03:30;6.9;;;6.2;;
15500;SDS011;7852;52.228;5.990;2022-09-03T05:04:30;6.8;;;6.1;;
15500;SDS011;7852;52.228;5.990;2022-09-03T05:05:31;7;;;6.3;;
15500;SDS011;7852;52.228;5.990;2022-09-03T05:06:31;7.1;;;5.9;;
15500;SDS011;7852;52.228;5.990;2022-09-03T05:07:31;7.1;;;6.3;;
15500;SDS011;7852;52.228;5.990;2022-09-03T05:08:31;8.7;;;6.4;;
15500;SDS011;7852;52.228;5.990;2022-09-03T05:09:31;7.2;;;5.6;;
15500;SDS011;7852;52.228;5.990;2022-09-03T05:10:30;6.5;;;5.8;;
15500;SDS011;7852;52.228;5.990;2022-09-03T05:11:31;6.9;;;5.7;;
15500;SDS011;7852;52.228;5.990;2022-09-03T05:12:30;6.4;;;5.8;;
15500;SDS011;7852;52.228;5.990;2022-09-03T05:13:31;6.7;;;5.2;;
15500;SDS011;7852;52.228;5.990;2022-09-03T05:14:30;6;;;5.4;;
15500;SDS011;7852;52.228;5.990;2022-09-03T05:15:31;7.3;;;5.7;;
15500;SDS011;7852;52.228;5.990;2022-09-03T05:16:31;5.6;;;5.1;;
15500;SDS011;7852;52.228;5.990;2022-09-03T05:17:31;5.7;;;5.2;;
15500;SDS011;7852;52.228;5.990;2022-09-03T05:18:31;6.2;;;5.4;;
15500;SDS011;7852;52.228;5.990;2022-09-03T05:19:30;8;;;5.6;;
15500;SDS011;7852;52.228;5.990;2022-09-03T05:20:30;5.9;;;5.3;;
15500;SDS011;7852;52.228;5.990;2022-09-03T05:21:31;5.9;;;5.3;;
15500;SDS011;7852;52.228;5.990;2022-09-03T05:22:30;5.9;;;5.3;;
15500;SDS011;7852;52.228;5.990;2022-09-03T05:23:34;7.7;;;5.2;;
15500;SDS011;7852;52.228;5.990;2022-09-03T05:24:30;5.9;;;5.3;;
15500;SDS011;7852;52.228;5.990;2022-09-03T05:25:31;8.4;;;5.5;;
15500;SDS011;7852;52.228;5.990;2022-09-03T05:27:44;7.2;;;5;;
15500;SDS011;7852;52.228;5.990;2022-09-03T05:28:40;6;;;5.4;;
15500;SDS011;7852;52.228;5.990;2022-09-03T05:29:39;6.1;;;5.2;;
15500;SDS011;7852;52.228;5.990;2022-09-03T05:30:39;6.4;;;5.2;;
15500;SDS011;7852;52.228;5.990;2022-09-03T05:31:39;6.3;;;5;;
15500;SDS011;7852;52.228;5.990;2022-09-03T05:32:39;5.8;;;5.2;;
15500;SDS011;7852;52.228;5.990;2022-09-03T05:33:40;5.6;;;5.2;;
15500;SDS011;7852;52.228;5.990;2022-09-03T05:34:39;6.2;;;5.6;;
15500;SDS011;7852;52.228;5.990;2022-09-03T05:35:39;5.5;;;5;;
15500;SDS011;7852;52.228;5.990;2022-09-03T05:36:39;8.7;;;5;;
15500;SDS011;7852;52.228;5.990;2022-09-03T05:37:39;6.7;;;5.2;;
15500;SDS011;7852;52.228;5.990;2022-09-03T05:39:40;5.6;;;5.1;;
15500;SDS011;7852;52.228;5.990;2022-09-03T05:40:39;6.1;;;5.2;;
15500;SDS011;7852;52.228;5.990;2022-09-03T05:41:42;6.2;;;5.6;;
15500;SDS011;7852;52.228;5.990;2022-09-03T05:42:42;5.6;;;5;;
15500;SDS011;7852;52.228;5.990;2022-09-03T05:43:42;6.2;;;5.4;;
15500;SDS011;7852;52.228;5.990;2022-09-03T05:44:42;5.8;;;5.2;;
15500;SDS011;7852;52.228;5.990;2022-09-03T05:45:42;6.5;;;5;;
15500;SDS011;7852;52.228;5.990;2022-09-03T05:46:42;5.1;;;4.7;;
15500;SDS011;7852;52.228;5.990;2022-09-03T05:47:42;5.6;;;5.1;;
15500;SDS011;7852;52.228;5.990;2022-09-03T05:48:42;6.4;;;5.2;;
15500;SDS011;7852;52.228;5.990;2022-09-03T05:49:42;5.7;;;5.1;;
15500;SDS011;7852;52.228;5.990;2022-09-03T05:50:42;5.4;;;4.9;;
15500;SDS011;7852;52.228;5.990;2022-09-03T05:51:42;5.2;;;4.8;;
15500;SDS011;7852;52.228;5.990;2022-09-03T05:52:42;6.3;;;5.3;;
15500;SDS011;7852;52.228;5.990;2022-09-03T05:53:42;5.4;;;4.8;;
15500;SDS011;7852;52.228;5.990;2022-09-03T05:54:42;6.1;;;5.2;;
15500;SDS011;7852;52.228;5.990;2022-09-03T05:55:42;5.5;;;5;;
15500;SDS011;7852;52.228;5.990;2022-09-03T05:56:42;6.8;;;5;;
15500;SDS011;7852;52.228;5.990;2022-09-03T05:57:42;5.5;;;4.9;;
15500;SDS011;7852;52.228;5.990;2022-09-03T05:58:42;5;;;4.5;;
15500;SDS011;7852;52.228;5.990;2022-09-03T05:59:42;6;;;4.9;;
15500;SDS011;7852;52.228;5.990;2022-09-03T06:00:42;5.9;;;4.9;;
15500;SDS011;7852;52.228;5.990;2022-09-03T06:01:42;4.7;;;4.3;;
15500;SDS011;7852;52.228;5.990;2022-09-03T06:02:42;4.8;;;4.3;;
15500;SDS011;7852;52.228;5.990;2022-09-03T06:03:42;4.6;;;4.2;;
15500;SDS011;7852;52.228;5.990;2022-09-03T06:04:42;4.7;;;4.2;;
15500;SDS011;7852;52.228;5.990;2022-09-03T06:05:48;5.5;;;4.5;;
15500;SDS011;7852;52.228;5.990;2022-09-03T06:06:43;4.9;;;4.1;;
15500;SDS011;7852;52.228;5.990;2022-09-03T06:07:42;4.5;;;4.1;;
15500;SDS011;7852;52.228;5.990;2022-09-03T06:08:42;6.1;;;3.9;;
15500;SDS011;7852;52.228;5.990;2022-09-03T06:09:42;4.4;;;3.9;;
15500;SDS011;7852;52.228;5.990;2022-09-03T06:10:42;3.8;;;3.2;;
15500;SDS011;7852;52.228;5.990;2022-09-03T06:11:42;4.7;;;3.4;;
15500;SDS011;7852;52.228;5.990;2022-09-03T06:12:42;4.2;;;3.8;;
15500;SDS011;7852;52.228;5.990;2022-09-03T06:13:42;4.7;;;3.7;;
15500;SDS011;7852;52.228;5.990;2022-09-03T06:14:42;5.3;;;3.3;;
15500;SDS011;7852;52.228;5.990;2022-09-03T06:15:42;5.6;;;3.2;;
15500;SDS011;7852;52.228;5.990;2022-09-03T06:16:42;3.6;;;3.3;;
15500;SDS011;7852;52.228;5.990;2022-09-03T06:17:42;7.2;;;3.5;;
15500;SDS011;7852;52.228;5.990;2022-09-03T06:18:42;3.9;;;3.3;;
15500;SDS011;7852;52.228;5.990;2022-09-03T06:19:42;4.5;;;3.7;;
15500;SDS011;7852;52.228;5.990;2022-09-03T06:20:42;3.9;;;3;;
15500;SDS011;7852;52.228;5.990;2022-09-03T06:21:43;6.4;;;3.2;;
15500;SDS011;7852;52.228;5.990;2022-09-03T06:22:45;2.8;;;2.6;;
15500;SDS011;7852;52.228;5.990;2022-09-03T06:23:42;3.1;;;2.8;;